sensor_id;sensor_type;location;lat;lon;timestamp;P1;durP1;ratioP1;P2;durP2;ratioP2
8819;SDS011;4446;50.876;4.736;2023-05-01T00:02:12;4.32;;;2.40;;
8819;SDS011;4446;50.876;4.736;2023-05-01T00:04:39;2.47;;;2.28;;
8819;SDS011;4446;50.876;4.736;2023-05-01T00:07:06;2.45;;;2.20;;
8819;SDS011;4446;50.876;4.736;2023-05-01T00:09:33;3.53;;;2.67;;
8819;SDS011;4446;50.876;4.736;2023-05-01T00:12:00;2.97;;;2.55;;
8819;SDS011;4446;50.876;4.736;2023-05-01T00:14:28;3.40;;;2.38;;
8819;SDS011;4446;50.876;4.736;2023-05-01T00:16:57;4.60;;;2.50;;
8819;SDS011;4446;50.876;4.736;2023-05-01T00:19:24;3.08;;;2.33;;
8819;SDS011;4446;50.876;4.736;2023-05-01T00:21:50;4.78;;;2.38;;
8819;SDS011;4446;50.876;4.736;2023-05-01T00:24:18;3.10;;;2.80;;
8819;SDS011;4446;50.876;4.736;2023-05-01T00:26:44;2.92;;;2.17;;
8819;SDS011;4446;50.876;4.736;2023-05-01T00:29:11;2.38;;;2.17;;
8819;SDS011;4446;50.876;4.736;2023-05-01T00:31:39;3.47;;;2.67;;
8819;SDS011;4446;50.876;4.736;2023-05-01T00:34:08;3.35;;;2.28;;
8819;SDS011;4446;50.876;4.736;2023-05-01T00:36:35;2.70;;;2.13;;
8819;SDS011;4446;50.876;4.736;2023-05-01T00:39:02;2.90;;;2.47;;
8819;SDS011;4446;50.876;4.736;2023-05-01T00:41:30;2.42;;;2.22;;
8819;SDS011;4446;50.876;4.736;2023-05-01T00:43:57;4.05;;;2.50;;
8819;SDS011;4446;50.876;4.736;2023-05-01T00:46:24;2.40;;;2.20;;
8819;SDS011;4446;50.876;4.736;2023-05-01T00:48:51;2.47;;;2.25;;
8819;SDS011;4446;50.876;4.736;2023-05-01T00:51:20;2.58;;;2.38;;
8819;SDS011;4446;50.876;4.736;2023-05-01T00:53:47;2.50;;;2.30;;
8819;SDS011;4446;50.876;4.736;2023-05-01T00:56:14;4.05;;;2.40;;
8819;SDS011;4446;50.876;4.736;2023-05-01T00:58:41;2.22;;;2.05;;
8819;SDS011;4446;50.876;4.736;2023-05-01T01:01:11;2.63;;;2.40;;
8819;SDS011;4446;50.876;4.736;2023-05-01T01:03:38;3.88;;;2.60;;
8819;SDS011;4446;50.876;4.736;2023-05-01T01:06:06;2.60;;;2.20;;
8819;SDS011;4446;50.876;4.736;2023-05-01T01:08:40;2.47;;;2.28;;
8819;SDS011;4446;50.876;4.736;2023-05-01T01:11:13;2.70;;;2.15;;
8819;SDS011;4446;50.876;4.736;2023-05-01T01:13:45;2.60;;;2.40;;
8819;SDS011;4446;50.876;4.736;2023-05-01T01:16:18;2.40;;;2.20;;
8819;SDS011;4446;50.876;4.736;2023-05-01T01:18:51;3.05;;;2.58;;
8819;SDS011;4446;50.876;4.736;2023-05-01T01:21:22;2.47;;;2.28;;
8819;SDS011;4446;50.876;4.736;2023-05-01T01:24:16;2.22;;;2.03;;
8819;SDS011;4446;50.876;4.736;2023-05-01T01:29:59;2.83;;;2.28;;
8819;SDS011;4446;50.876;4.736;2023-05-01T01:35:54;6.35;;;2.95;;
8819;SDS011;4446;50.876;4.736;2023-05-01T01:38:24;2.50;;;2.22;;
8819;SDS011;4446;50.876;4.736;2023-05-01T01:41:00;2.70;;;2.50;;
8819;SDS011;4446;50.876;4.736;2023-05-01T01:43:36;3.15;;;2.78;;
8819;SDS011;4446;50.876;4.736;2023-05-01T01:46:06;2.53;;;2.33;;
8819;SDS011;4446;50.876;4.736;2023-05-01T01:48:37;3.33;;;2.88;;
8819;SDS011;4446;50.876;4.736;2023-05-01T01:51:09;3.33;;;2.80;;
8819;SDS011;4446;50.876;4.736;2023-05-01T01:53:39;2.75;;;2.55;;
8819;SDS011;4446;50.876;4.736;2023-05-01T01:56:07;3.20;;;2.90;;
8819;SDS011;4446;50.876;4.736;2023-05-01T01:58:35;4.65;;;2.90;;
8819;SDS011;4446;50.876;4.736;2023-05-01T02:01:04;3.30;;;3.00;;
8819;SDS011;4446;50.876;4.736;2023-05-01T02:03:32;2.60;;;2.40;;
8819;SDS011;4446;50.876;4.736;2023-05-01T02:06:00;2.90;;;2.70;;
8819;SDS011;4446;50.876;4.736;2023-05-01T02:08:30;2.88;;;2.38;;
8819;SDS011;4446;50.876;4.736;2023-05-01T02:10:58;2.72;;;2.53;;
8819;SDS011;4446;50.876;4.736;2023-05-01T02:13:27;5.25;;;3.13;;
8819;SDS011;4446;50.876;4.736;2023-05-01T02:15:55;4.95;;;3.22;;
8819;SDS011;4446;50.876;4.736;2023-05-01T02:18:24;3.00;;;2.42;;
8819;SDS011;4446;50.876;4.736;2023-05-01T02:20:52;2.65;;;2.38;;
8819;SDS011;4446;50.876;4.736;2023-05-01T02:23:22;3.08;;;2.40;;
8819;SDS011;4446;50.876;4.736;2023-05-01T02:25:53;3.45;;;2.67;;
8819;SDS011;4446;50.876;4.736;2023-05-01T02:28:23;3.17;;;2.88;;
8819;SDS011;4446;50.876;4.736;2023-05-01T02:30:52;2.95;;;2.60;;
8819;SDS011;4446;50.876;4.736;2023-05-01T02:33:19;4.93;;;3.40;;
8819;SDS011;4446;50.876;4.736;2023-05-01T02:35:46;3.50;;;3.10;;
8819;SDS011;4446;50.876;4.736;2023-05-01T02:38:13;3.83;;;3.03;;
8819;SDS011;4446;50.876;4.736;2023-05-01T02:40:41;3.42;;;2.80;;
8819;SDS011;4446;50.876;4.736;2023-05-01T02:43:14;4.25;;;2.88;;
8819;SDS011;4446;50.876;4.736;2023-05-01T02:45:44;3.35;;;2.53;;
8819;SDS011;4446;50.876;4.736;2023-05-01T02:48:14;3.33;;;3.03;;
8819;SDS011;4446;50.876;4.736;2023-05-01T02:50:44;3.42;;;2.88;;
8819;SDS011;4446;50.876;4.736;2023-05-01T02:53:12;5.00;;;2.95;;
8819;SDS011;4446;50.876;4.736;2023-05-01T02:55:40;5.60;;;3.00;;
8819;SDS011;4446;50.876;4.736;2023-05-01T02:58:07;3.20;;;2.65;;
8819;SDS011;4446;50.876;4.736;2023-05-01T03:00:41;2.80;;;2.50;;
8819;SDS011;4446;50.876;4.736;2023-05-01T03:03:08;2.67;;;2.47;;
8819;SDS011;4446;50.876;4.736;2023-05-01T03:05:36;3.47;;;2.95;;
8819;SDS011;4446;50.876;4.736;2023-05-01T03:08:04;2.80;;;2.40;;
8819;SDS011;4446;50.876;4.736;2023-05-01T03:10:31;3.10;;;2.03;;
8819;SDS011;4446;50.876;4.736;2023-05-01T03:12:58;3.47;;;2.90;;
8819;SDS011;4446;50.876;4.736;2023-05-01T03:15:27;3.30;;;2.95;;
8819;SDS011;4446;50.876;4.736;2023-05-01T03:17:54;3.78;;;2.90;;
8819;SDS011;4446;50.876;4.736;2023-05-01T03:20:21;3.17;;;2.72;;
8819;SDS011;4446;50.876;4.736;2023-05-01T03:22:48;2.95;;;2.63;;
8819;SDS011;4446;50.876;4.736;2023-05-01T03:25:16;3.25;;;2.80;;
8819;SDS011;4446;50.876;4.736;2023-05-01T03:27:43;4.45;;;2.90;;
8819;SDS011;4446;50.876;4.736;2023-05-01T03:30:10;3.63;;;2.85;;
8819;SDS011;4446;50.876;4.736;2023-05-01T03:32:39;4.78;;;2.78;;
8819;SDS011;4446;50.876;4.736;2023-05-01T03:35:06;2.90;;;2.60;;
8819;SDS011;4446;50.876;4.736;2023-05-01T03:37:33;2.97;;;2.67;;
8819;SDS011;4446;50.876;4.736;2023-05-01T03:40:01;3.15;;;2.85;;
8819;SDS011;4446;50.876;4.736;2023-05-01T03:42:28;4.20;;;2.80;;
8819;SDS011;4446;50.876;4.736;2023-05-01T03:44:55;2.47;;;2.15;;
8819;SDS011;4446;50.876;4.736;2023-05-01T03:47:22;2.75;;;2.50;;
8819;SDS011;4446;50.876;4.736;2023-05-01T03:49:50;2.92;;;2.55;;
8819;SDS011;4446;50.876;4.736;2023-05-01T03:52:17;4.25;;;2.78;;
8819;SDS011;4446;50.876;4.736;2023-05-01T03:54:44;3.78;;;3.00;;
8819;SDS011;4446;50.876;4.736;2023-05-01T03:57:11;3.40;;;2.95;;
8819;SDS011;4446;50.876;4.736;2023-05-01T03:59:38;4.90;;;3.33;;
8819;SDS011;4446;50.876;4.736;2023-05-01T04:02:08;3.78;;;3.22;;
8819;SDS011;4446;50.876;4.736;2023-05-01T04:04:35;4.22;;;3.20;;
8819;SDS011;4446;50.876;4.736;2023-05-01T04:07:03;3.65;;;3.00;;
8819;SDS011;4446;50.876;4.736;2023-05-01T04:09:31;3.90;;;3.42;;
8819;SDS011;4446;50.876;4.736;2023-05-01T04:11:58;3.63;;;3.33;;
8819;SDS011;4446;50.876;4.736;2023-05-01T04:14:26;5.38;;;3.47;;
8819;SDS011;4446;50.876;4.736;2023-05-01T04:16:53;5.20;;;3.90;;
8819;SDS011;4446;50.876;4.736;2023-05-01T04:19:20;6.05;;;3.97;;
8819;SDS011;4446;50.876;4.736;2023-05-01T04:21:47;4.25;;;3.78;;
8819;SDS011;4446;50.876;4.736;2023-05-01T04:24:16;4.43;;;3.65;;
8819;SDS011;4446;50.876;4.736;2023-05-01T04:26:42;5.35;;;3.60;;
8819;SDS011;4446;50.876;4.736;2023-05-01T04:29:09;4.15;;;3.70;;
8819;SDS011;4446;50.876;4.736;2023-05-01T04:31:36;5.68;;;4.00;;
8819;SDS011;4446;50.876;4.736;2023-05-01T04:34:05;3.97;;;3.20;;
8819;SDS011;4446;50.876;4.736;2023-05-01T04:36:33;4.25;;;3.35;;
8819;SDS011;4446;50.876;4.736;2023-05-01T04:39:00;4.55;;;3.78;;
8819;SDS011;4446;50.876;4.736;2023-05-01T04:41:29;5.53;;;4.28;;
8819;SDS011;4446;50.876;4.736;2023-05-01T04:43:56;4.88;;;3.97;;
8819;SDS011;4446;50.876;4.736;2023-05-01T04:46:23;4.70;;;4.03;;
8819;SDS011;4446;50.876;4.736;2023-05-01T04:48:50;6.18;;;4.18;;
8819;SDS011;4446;50.876;4.736;2023-05-01T04:51:17;5.82;;;4.53;;
8819;SDS011;4446;50.876;4.736;2023-05-01T04:53:44;5.15;;;4.20;;
8819;SDS011;4446;50.876;4.736;2023-05-01T04:56:11;5.80;;;4.35;;
8819;SDS011;4446;50.876;4.736;2023-05-01T04:58:39;4.63;;;3.80;;
8819;SDS011;4446;50.876;4.736;2023-05-01T05:01:06;5.50;;;4.30;;
8819;SDS011;4446;50.876;4.736;2023-05-01T05:03:34;5.22;;;3.58;;
8819;SDS011;4446;50.876;4.736;2023-05-01T05:06:01;5.03;;;3.88;;
8819;SDS011;4446;50.876;4.736;2023-05-01T05:08:28;5.90;;;3.47;;
8819;SDS011;4446;50.876;4.736;2023-05-01T05:10:56;4.47;;;3.40;;
8819;SDS011;4446;50.876;4.736;2023-05-01T05:13:24;4.32;;;3.53;;
8819;SDS011;4446;50.876;4.736;2023-05-01T05:15:52;4.45;;;3.25;;
8819;SDS011;4446;50.876;4.736;2023-05-01T05:18:19;4.97;;;3.63;;
8819;SDS011;4446;50.876;4.736;2023-05-01T05:20:46;7.47;;;3.47;;
8819;SDS011;4446;50.876;4.736;2023-05-01T05:23:13;4.25;;;3.85;;
8819;SDS011;4446;50.876;4.736;2023-05-01T05:25:40;4.93;;;3.45;;
8819;SDS011;4446;50.876;4.736;2023-05-01T05:28:07;4.70;;;3.45;;
8819;SDS011;4446;50.876;4.736;2023-05-01T05:30:34;4.35;;;3.47;;
8819;SDS011;4446;50.876;4.736;2023-05-01T05:33:03;4.40;;;3.60;;
8819;SDS011;4446;50.876;4.736;2023-05-01T05:35:32;4.43;;;3.70;;
8819;SDS011;4446;50.876;4.736;2023-05-01T05:37:59;4.60;;;3.72;;
8819;SDS011;4446;50.876;4.736;2023-05-01T05:40:27;7.45;;;4.28;;
8819;SDS011;4446;50.876;4.736;2023-05-01T05:42:54;4.13;;;3.72;;
8819;SDS011;4446;50.876;4.736;2023-05-01T05:45:21;6.78;;;3.65;;
8819;SDS011;4446;50.876;4.736;2023-05-01T05:47:48;4.13;;;3.70;;
8819;SDS011;4446;50.876;4.736;2023-05-01T05:50:17;5.53;;;3.50;;
8819;SDS011;4446;50.876;4.736;2023-05-01T05:52:44;5.03;;;3.60;;
8819;SDS011;4446;50.876;4.736;2023-05-01T05:55:11;5.03;;;3.88;;
8819;SDS011;4446;50.876;4.736;2023-05-01T05:57:38;5.97;;;3.90;;
8819;SDS011;4446;50.876;4.736;2023-05-01T06:00:05;6.45;;;4.45;;
8819;SDS011;4446;50.876;4.736;2023-05-01T06:02:34;5.53;;;3.92;;
8819;SDS011;4446;50.876;4.736;2023-05-01T06:05:01;4.97;;;4.38;;
8819;SDS011;4446;50.876;4.736;2023-05-01T06:07:30;5.35;;;4.43;;
8819;SDS011;4446;50.876;4.736;2023-05-01T06:09:57;5.30;;;4.50;;
8819;SDS011;4446;50.876;4.736;2023-05-01T06:12:28;6.00;;;4.25;;
8819;SDS011;4446;50.876;4.736;2023-05-01T06:14:55;5.47;;;3.88;;
8819;SDS011;4446;50.876;4.736;2023-05-01T06:17:23;5.28;;;4.15;;
8819;SDS011;4446;50.876;4.736;2023-05-01T06:19:50;6.50;;;4.55;;
8819;SDS011;4446;50.876;4.736;2023-05-01T06:22:18;5.13;;;4.63;;
8819;SDS011;4446;50.876;4.736;2023-05-01T06:24:47;5.22;;;4.00;;
8819;SDS011;4446;50.876;4.736;2023-05-01T06:27:14;4.78;;;4.03;;
8819;SDS011;4446;50.876;4.736;2023-05-01T06:29:41;6.13;;;4.47;;
8819;SDS011;4446;50.876;4.736;2023-05-01T06:32:08;4.90;;;4.30;;
8819;SDS011;4446;50.876;4.736;2023-05-01T06:34:35;5.57;;;4.13;;
8819;SDS011;4446;50.876;4.736;2023-05-01T06:37:02;5.40;;;4.38;;
8819;SDS011;4446;50.876;4.736;2023-05-01T06:39:31;5.20;;;4.53;;
8819;SDS011;4446;50.876;4.736;2023-05-01T06:42:00;4.68;;;4.00;;
8819;SDS011;4446;50.876;4.736;2023-05-01T06:44:27;5.75;;;4.30;;
8819;SDS011;4446;50.876;4.736;2023-05-01T06:46:54;5.15;;;4.65;;
8819;SDS011;4446;50.876;4.736;2023-05-01T06:49:22;6.20;;;4.00;;
8819;SDS011;4446;50.876;4.736;2023-05-01T06:51:49;5.35;;;4.40;;
8819;SDS011;4446;50.876;4.736;2023-05-01T06:54:16;5.55;;;4.57;;
8819;SDS011;4446;50.876;4.736;2023-05-01T06:56:44;5.05;;;4.35;;
8819;SDS011;4446;50.876;4.736;2023-05-01T06:59:12;4.70;;;4.22;;
8819;SDS011;4446;50.876;4.736;2023-05-01T07:01:39;4.65;;;4.20;;
8819;SDS011;4446;50.876;4.736;2023-05-01T07:04:06;5.00;;;4.32;;
8819;SDS011;4446;50.876;4.736;2023-05-01T07:06:33;6.40;;;5.00;;
8819;SDS011;4446;50.876;4.736;2023-05-01T07:09:00;4.40;;;4.00;;
8819;SDS011;4446;50.876;4.736;2023-05-01T07:11:28;4.90;;;4.22;;
8819;SDS011;4446;50.876;4.736;2023-05-01T07:13:55;5.05;;;4.50;;
8819;SDS011;4446;50.876;4.736;2023-05-01T07:16:23;6.10;;;4.07;;
8819;SDS011;4446;50.876;4.736;2023-05-01T07:18:50;4.65;;;4.10;;
8819;SDS011;4446;50.876;4.736;2023-05-01T07:21:17;6.03;;;4.57;;
8819;SDS011;4446;50.876;4.736;2023-05-01T07:23:44;7.70;;;4.47;;
8819;SDS011;4446;50.876;4.736;2023-05-01T07:26:11;4.65;;;4.25;;
8819;SDS011;4446;50.876;4.736;2023-05-01T07:28:42;5.22;;;4.70;;
8819;SDS011;4446;50.876;4.736;2023-05-01T07:31:09;5.30;;;4.80;;
8819;SDS011;4446;50.876;4.736;2023-05-01T07:33:37;5.45;;;4.82;;
8819;SDS011;4446;50.876;4.736;2023-05-01T07:36:06;6.22;;;5.30;;
8819;SDS011;4446;50.876;4.736;2023-05-01T07:38:33;5.47;;;4.82;;
8819;SDS011;4446;50.876;4.736;2023-05-01T07:41:00;7.07;;;5.45;;
8819;SDS011;4446;50.876;4.736;2023-05-01T07:43:27;6.68;;;5.95;;
8819;SDS011;4446;50.876;4.736;2023-05-01T07:45:54;5.75;;;5.15;;
8819;SDS011;4446;50.876;4.736;2023-05-01T07:48:22;5.80;;;5.03;;
8819;SDS011;4446;50.876;4.736;2023-05-01T07:50:51;7.60;;;5.40;;
8819;SDS011;4446;50.876;4.736;2023-05-01T07:53:19;8.05;;;6.07;;
8819;SDS011;4446;50.876;4.736;2023-05-01T07:55:47;9.95;;;8.18;;
8819;SDS011;4446;50.876;4.736;2023-05-01T07:58:15;9.82;;;7.75;;
8819;SDS011;4446;50.876;4.736;2023-05-01T08:00:42;9.68;;;7.72;;
8819;SDS011;4446;50.876;4.736;2023-05-01T08:03:10;10.60;;;8.35;;
8819;SDS011;4446;50.876;4.736;2023-05-01T08:05:38;10.63;;;8.77;;
8819;SDS011;4446;50.876;4.736;2023-05-01T08:08:07;10.13;;;9.00;;
8819;SDS011;4446;50.876;4.736;2023-05-01T08:10:34;12.27;;;9.40;;
8819;SDS011;4446;50.876;4.736;2023-05-01T08:13:01;10.60;;;9.40;;
8819;SDS011;4446;50.876;4.736;2023-05-01T08:15:28;11.65;;;9.52;;
8819;SDS011;4446;50.876;4.736;2023-05-01T08:17:56;10.50;;;9.23;;
8819;SDS011;4446;50.876;4.736;2023-05-01T08:20:23;12.70;;;9.45;;
8819;SDS011;4446;50.876;4.736;2023-05-01T08:22:50;14.20;;;10.75;;
8819;SDS011;4446;50.876;4.736;2023-05-01T08:25:19;13.38;;;10.52;;
8819;SDS011;4446;50.876;4.736;2023-05-01T08:27:46;12.45;;;9.98;;
8819;SDS011;4446;50.876;4.736;2023-05-01T08:30:14;13.02;;;10.35;;
8819;SDS011;4446;50.876;4.736;2023-05-01T08:32:41;11.88;;;10.25;;
8819;SDS011;4446;50.876;4.736;2023-05-01T08:35:08;11.30;;;9.95;;
8819;SDS011;4446;50.876;4.736;2023-05-01T08:37:35;10.55;;;9.38;;
8819;SDS011;4446;50.876;4.736;2023-05-01T08:40:03;11.80;;;10.00;;
8819;SDS011;4446;50.876;4.736;2023-05-01T08:42:34;12.65;;;10.45;;
8819;SDS011;4446;50.876;4.736;2023-05-01T08:45:03;13.43;;;10.75;;
8819;SDS011;4446;50.876;4.736;2023-05-01T08:47:33;11.13;;;9.98;;
8819;SDS011;4446;50.876;4.736;2023-05-01T08:50:02;13.85;;;10.13;;
8819;SDS011;4446;50.876;4.736;2023-05-01T08:52:35;13.50;;;10.52;;
8819;SDS011;4446;50.876;4.736;2023-05-01T08:55:06;13.93;;;11.35;;
8819;SDS011;4446;50.876;4.736;2023-05-01T08:57:38;13.18;;;11.05;;
8819;SDS011;4446;50.876;4.736;2023-05-01T09:00:10;13.82;;;10.93;;
8819;SDS011;4446;50.876;4.736;2023-05-01T09:02:43;13.02;;;11.18;;
8819;SDS011;4446;50.876;4.736;2023-05-01T09:05:12;15.57;;;12.73;;
8819;SDS011;4446;50.876;4.736;2023-05-01T09:07:41;13.85;;;11.63;;
8819;SDS011;4446;50.876;4.736;2023-05-01T09:10:10;14.95;;;12.77;;
8819;SDS011;4446;50.876;4.736;2023-05-01T09:12:39;15.88;;;12.27;;
8819;SDS011;4446;50.876;4.736;2023-05-01T09:15:09;16.42;;;12.82;;
8819;SDS011;4446;50.876;4.736;2023-05-01T09:17:37;15.55;;;12.25;;
8819;SDS011;4446;50.876;4.736;2023-05-01T09:20:06;17.23;;;12.70;;
8819;SDS011;4446;50.876;4.736;2023-05-01T09:22:34;15.55;;;12.57;;
8819;SDS011;4446;50.876;4.736;2023-05-01T09:25:01;17.92;;;13.10;;
8819;SDS011;4446;50.876;4.736;2023-05-01T09:27:30;17.10;;;13.25;;
8819;SDS011;4446;50.876;4.736;2023-05-01T09:30:01;17.25;;;13.35;;
8819;SDS011;4446;50.876;4.736;2023-05-01T09:32:30;15.65;;;13.00;;
8819;SDS011;4446;50.876;4.736;2023-05-01T09:35:07;20.55;;;15.25;;
8819;SDS011;4446;50.876;4.736;2023-05-01T09:37:35;19.65;;;14.40;;
8819;SDS011;4446;50.876;4.736;2023-05-01T09:40:06;19.15;;;14.02;;
8819;SDS011;4446;50.876;4.736;2023-05-01T09:42:35;21.92;;;15.50;;
8819;SDS011;4446;50.876;4.736;2023-05-01T09:45:10;21.05;;;15.15;;
8819;SDS011;4446;50.876;4.736;2023-05-01T09:47:38;24.80;;;15.68;;
8819;SDS011;4446;50.876;4.736;2023-05-01T09:50:06;23.67;;;15.65;;
8819;SDS011;4446;50.876;4.736;2023-05-01T09:52:34;24.33;;;16.35;;
8819;SDS011;4446;50.876;4.736;2023-05-01T09:55:10;20.50;;;15.32;;
8819;SDS011;4446;50.876;4.736;2023-05-01T09:57:38;22.73;;;15.65;;
8819;SDS011;4446;50.876;4.736;2023-05-01T10:00:09;22.35;;;14.93;;
8819;SDS011;4446;50.876;4.736;2023-05-01T10:02:38;22.90;;;15.57;;
8819;SDS011;4446;50.876;4.736;2023-05-01T10:05:07;24.00;;;15.88;;
8819;SDS011;4446;50.876;4.736;2023-05-01T10:07:35;22.13;;;16.77;;
8819;SDS011;4446;50.876;4.736;2023-05-01T10:10:15;25.17;;;16.98;;
8819;SDS011;4446;50.876;4.736;2023-05-01T10:12:42;23.77;;;16.80;;
8819;SDS011;4446;50.876;4.736;2023-05-01T10:15:11;21.50;;;15.88;;
8819;SDS011;4446;50.876;4.736;2023-05-01T10:17:39;22.40;;;16.55;;
8819;SDS011;4446;50.876;4.736;2023-05-01T10:20:07;22.58;;;15.95;;
8819;SDS011;4446;50.876;4.736;2023-05-01T10:22:36;22.63;;;15.77;;
8819;SDS011;4446;50.876;4.736;2023-05-01T10:25:06;24.20;;;16.33;;
8819;SDS011;4446;50.876;4.736;2023-05-01T10:27:34;26.45;;;17.58;;
8819;SDS011;4446;50.876;4.736;2023-05-01T10:30:03;26.15;;;17.23;;
8819;SDS011;4446;50.876;4.736;2023-05-01T10:32:32;32.45;;;20.00;;
8819;SDS011;4446;50.876;4.736;2023-05-01T10:35:01;30.27;;;19.35;;
8819;SDS011;4446;50.876;4.736;2023-05-01T10:37:33;30.08;;;18.92;;
8819;SDS011;4446;50.876;4.736;2023-05-01T10:43:12;30.48;;;18.60;;
8819;SDS011;4446;50.876;4.736;2023-05-01T10:45:50;28.73;;;18.60;;
8819;SDS011;4446;50.876;4.736;2023-05-01T10:51:22;28.65;;;18.85;;
8819;SDS011;4446;50.876;4.736;2023-05-01T10:56:47;29.83;;;19.45;;
8819;SDS011;4446;50.876;4.736;2023-05-01T10:59:14;29.10;;;17.80;;
8819;SDS011;4446;50.876;4.736;2023-05-01T11:01:42;26.95;;;17.80;;
8819;SDS011;4446;50.876;4.736;2023-05-01T11:07:22;26.75;;;17.08;;
8819;SDS011;4446;50.876;4.736;2023-05-01T11:09:50;28.33;;;18.60;;
8819;SDS011;4446;50.876;4.736;2023-05-01T11:15:25;27.88;;;18.08;;
8819;SDS011;4446;50.876;4.736;2023-05-01T11:17:56;27.05;;;17.30;;
8819;SDS011;4446;50.876;4.736;2023-05-01T11:23:19;24.95;;;16.85;;
8819;SDS011;4446;50.876;4.736;2023-05-01T11:25:47;23.63;;;16.02;;
8819;SDS011;4446;50.876;4.736;2023-05-01T11:28:18;23.85;;;16.13;;
8819;SDS011;4446;50.876;4.736;2023-05-01T11:30:49;21.67;;;16.13;;
8819;SDS011;4446;50.876;4.736;2023-05-01T11:33:23;23.25;;;16.40;;
8819;SDS011;4446;50.876;4.736;2023-05-01T11:35:58;23.55;;;16.23;;
8819;SDS011;4446;50.876;4.736;2023-05-01T11:38:27;22.90;;;14.77;;
8819;SDS011;4446;50.876;4.736;2023-05-01T11:40:56;19.30;;;14.00;;
8819;SDS011;4446;50.876;4.736;2023-05-01T11:43:25;22.05;;;14.45;;
8819;SDS011;4446;50.876;4.736;2023-05-01T11:45:52;21.73;;;15.10;;
8819;SDS011;4446;50.876;4.736;2023-05-01T11:48:26;18.05;;;13.80;;
8819;SDS011;4446;50.876;4.736;2023-05-01T11:50:53;15.82;;;12.48;;
8819;SDS011;4446;50.876;4.736;2023-05-01T11:53:21;18.17;;;13.93;;
8819;SDS011;4446;50.876;4.736;2023-05-01T11:55:49;20.63;;;14.32;;
8819;SDS011;4446;50.876;4.736;2023-05-01T11:58:16;17.92;;;13.88;;
8819;SDS011;4446;50.876;4.736;2023-05-01T12:00:55;17.13;;;12.65;;
8819;SDS011;4446;50.876;4.736;2023-05-01T12:03:23;16.83;;;12.82;;
8819;SDS011;4446;50.876;4.736;2023-05-01T12:05:50;17.13;;;13.50;;
8819;SDS011;4446;50.876;4.736;2023-05-01T12:08:19;15.50;;;13.02;;
8819;SDS011;4446;50.876;4.736;2023-05-01T12:10:48;14.30;;;11.80;;
8819;SDS011;4446;50.876;4.736;2023-05-01T12:13:20;16.05;;;13.13;;
8819;SDS011;4446;50.876;4.736;2023-05-01T12:15:48;14.02;;;12.43;;
8819;SDS011;4446;50.876;4.736;2023-05-01T12:18:17;15.93;;;12.18;;
8819;SDS011;4446;50.876;4.736;2023-05-01T12:20:46;14.30;;;12.18;;
8819;SDS011;4446;50.876;4.736;2023-05-01T12:23:14;14.52;;;11.98;;
8819;SDS011;4446;50.876;4.736;2023-05-01T12:25:43;13.50;;;11.32;;
8819;SDS011;4446;50.876;4.736;2023-05-01T12:28:12;15.48;;;12.75;;
8819;SDS011;4446;50.876;4.736;2023-05-01T12:30:41;16.80;;;13.00;;
8819;SDS011;4446;50.876;4.736;2023-05-01T12:33:09;17.88;;;13.68;;
8819;SDS011;4446;50.876;4.736;2023-05-01T12:35:38;16.05;;;12.85;;
8819;SDS011;4446;50.876;4.736;2023-05-01T12:38:10;18.05;;;14.20;;
8819;SDS011;4446;50.876;4.736;2023-05-01T12:40:38;18.02;;;14.45;;
8819;SDS011;4446;50.876;4.736;2023-05-01T12:43:06;16.75;;;13.65;;
8819;SDS011;4446;50.876;4.736;2023-05-01T12:45:39;19.83;;;14.20;;
8819;SDS011;4446;50.876;4.736;2023-05-01T12:48:10;19.23;;;13.55;;
8819;SDS011;4446;50.876;4.736;2023-05-01T12:50:39;17.38;;;13.63;;
8819;SDS011;4446;50.876;4.736;2023-05-01T12:53:06;18.38;;;14.38;;
8819;SDS011;4446;50.876;4.736;2023-05-01T12:55:44;19.20;;;15.18;;
8819;SDS011;4446;50.876;4.736;2023-05-01T12:58:12;17.23;;;14.52;;
8819;SDS011;4446;50.876;4.736;2023-05-01T13:00:44;22.20;;;15.73;;
8819;SDS011;4446;50.876;4.736;2023-05-01T13:03:13;17.52;;;14.73;;
8819;SDS011;4446;50.876;4.736;2023-05-01T13:05:49;19.85;;;15.18;;
8819;SDS011;4446;50.876;4.736;2023-05-01T13:08:24;19.60;;;15.55;;
8819;SDS011;4446;50.876;4.736;2023-05-01T13:10:53;20.52;;;15.13;;
8819;SDS011;4446;50.876;4.736;2023-05-01T13:13:25;20.25;;;16.42;;
8819;SDS011;4446;50.876;4.736;2023-05-01T13:15:55;20.33;;;15.68;;
8819;SDS011;4446;50.876;4.736;2023-05-01T13:18:29;19.35;;;15.02;;
8819;SDS011;4446;50.876;4.736;2023-05-01T13:21:04;19.15;;;14.80;;
8819;SDS011;4446;50.876;4.736;2023-05-01T13:23:32;19.00;;;15.07;;
8819;SDS011;4446;50.876;4.736;2023-05-01T13:25:59;19.35;;;15.02;;
8819;SDS011;4446;50.876;4.736;2023-05-01T13:28:29;19.02;;;14.55;;
8819;SDS011;4446;50.876;4.736;2023-05-01T13:30:57;19.40;;;15.23;;
8819;SDS011;4446;50.876;4.736;2023-05-01T13:33:24;13.10;;;11.43;;
8819;SDS011;4446;50.876;4.736;2023-05-01T13:35:52;12.63;;;11.20;;
8819;SDS011;4446;50.876;4.736;2023-05-01T13:38:21;13.52;;;10.93;;
8819;SDS011;4446;50.876;4.736;2023-05-01T13:40:49;13.88;;;11.20;;
8819;SDS011;4446;50.876;4.736;2023-05-01T13:43:16;13.82;;;11.63;;
8819;SDS011;4446;50.876;4.736;2023-05-01T13:45:45;12.73;;;10.75;;
8819;SDS011;4446;50.876;4.736;2023-05-01T13:48:14;14.98;;;11.52;;
8819;SDS011;4446;50.876;4.736;2023-05-01T13:50:43;12.38;;;11.07;;
8819;SDS011;4446;50.876;4.736;2023-05-01T13:53:10;12.50;;;10.98;;
8819;SDS011;4446;50.876;4.736;2023-05-01T13:55:38;13.45;;;11.43;;
8819;SDS011;4446;50.876;4.736;2023-05-01T13:58:06;14.00;;;10.82;;
8819;SDS011;4446;50.876;4.736;2023-05-01T14:00:33;13.43;;;10.77;;
8819;SDS011;4446;50.876;4.736;2023-05-01T14:03:01;14.38;;;11.18;;
8819;SDS011;4446;50.876;4.736;2023-05-01T14:05:30;15.18;;;12.30;;
8819;SDS011;4446;50.876;4.736;2023-05-01T14:07:57;15.48;;;11.60;;
8819;SDS011;4446;50.876;4.736;2023-05-01T14:10:25;13.80;;;11.10;;
8819;SDS011;4446;50.876;4.736;2023-05-01T14:12:53;14.07;;;11.32;;
8819;SDS011;4446;50.876;4.736;2023-05-01T14:15:22;13.65;;;10.65;;
8819;SDS011;4446;50.876;4.736;2023-05-01T14:17:49;14.20;;;10.57;;
8819;SDS011;4446;50.876;4.736;2023-05-01T14:20:17;12.27;;;10.38;;
8819;SDS011;4446;50.876;4.736;2023-05-01T14:22:46;12.82;;;10.23;;
8819;SDS011;4446;50.876;4.736;2023-05-01T14:25:27;12.13;;;10.13;;
8819;SDS011;4446;50.876;4.736;2023-05-01T14:27:55;13.80;;;10.73;;
8819;SDS011;4446;50.876;4.736;2023-05-01T14:30:26;12.32;;;10.38;;
8819;SDS011;4446;50.876;4.736;2023-05-01T14:32:57;12.93;;;11.05;;
8819;SDS011;4446;50.876;4.736;2023-05-01T14:35:26;14.65;;;10.27;;
8819;SDS011;4446;50.876;4.736;2023-05-01T14:37:54;14.57;;;11.20;;
8819;SDS011;4446;50.876;4.736;2023-05-01T14:40:24;14.40;;;11.70;;
8819;SDS011;4446;50.876;4.736;2023-05-01T14:42:52;14.93;;;11.70;;
8819;SDS011;4446;50.876;4.736;2023-05-01T14:45:20;13.93;;;11.50;;
8819;SDS011;4446;50.876;4.736;2023-05-01T14:47:47;12.98;;;10.73;;
8819;SDS011;4446;50.876;4.736;2023-05-01T14:50:18;12.32;;;10.45;;
8819;SDS011;4446;50.876;4.736;2023-05-01T14:52:47;13.68;;;10.30;;
8819;SDS011;4446;50.876;4.736;2023-05-01T14:55:20;13.00;;;10.52;;
8819;SDS011;4446;50.876;4.736;2023-05-01T14:57:51;11.88;;;10.48;;
8819;SDS011;4446;50.876;4.736;2023-05-01T15:00:18;11.90;;;10.45;;
8819;SDS011;4446;50.876;4.736;2023-05-01T15:02:46;11.50;;;8.85;;
8819;SDS011;4446;50.876;4.736;2023-05-01T15:05:13;11.93;;;9.38;;
8819;SDS011;4446;50.876;4.736;2023-05-01T15:07:40;12.90;;;10.73;;
8819;SDS011;4446;50.876;4.736;2023-05-01T15:10:08;11.88;;;9.68;;
8819;SDS011;4446;50.876;4.736;2023-05-01T15:12:37;10.48;;;8.90;;
8819;SDS011;4446;50.876;4.736;2023-05-01T15:15:04;12.23;;;9.10;;
8819;SDS011;4446;50.876;4.736;2023-05-01T15:17:32;12.02;;;8.77;;
8819;SDS011;4446;50.876;4.736;2023-05-01T15:19:59;11.52;;;9.15;;
8819;SDS011;4446;50.876;4.736;2023-05-01T15:22:26;11.30;;;8.60;;
8819;SDS011;4446;50.876;4.736;2023-05-01T15:24:53;10.45;;;8.45;;
8819;SDS011;4446;50.876;4.736;2023-05-01T15:27:20;10.27;;;7.90;;
8819;SDS011;4446;50.876;4.736;2023-05-01T15:29:48;9.52;;;8.07;;
8819;SDS011;4446;50.876;4.736;2023-05-01T15:32:16;10.73;;;7.50;;
8819;SDS011;4446;50.876;4.736;2023-05-01T15:34:43;10.73;;;8.05;;
8819;SDS011;4446;50.876;4.736;2023-05-01T15:37:10;8.23;;;6.80;;